Аэропорт: Чебоксары. Чебоксары

ICAO: UWKS

METAR:
2018/07/22 20:00
UWKS 222000Z 11004MPS CAVOK 16/09 Q1016 R06/010060 NOSIG RMK QFE747
METAR:
2015/12/20 18:00
TAF UWKS 201632Z 2018/2103 27003MPS 2700 -SNRA BR OVC007 
      TEMPO 2018/2102 0500 FZDZ FZFG OVC002